sensor_id;sensor_type;location;lat;lon;timestamp;P1;durP1;ratioP1;P2;durP2;ratioP2
18501;SDS011;68437;52.236;5.710;2024-01-11T00:02:12;34.83;;;12.70;;
18501;SDS011;68437;52.236;5.710;2024-01-11T00:04:40;37.67;;;13.23;;
18501;SDS011;68437;52.236;5.710;2024-01-11T00:07:08;39.07;;;13.30;;
18501;SDS011;68437;52.236;5.710;2024-01-11T00:09:38;38.70;;;13.53;;
18501;SDS011;68437;52.236;5.710;2024-01-11T00:12:05;37.43;;;12.37;;
18501;SDS011;68437;52.236;5.710;2024-01-11T00:14:32;31.90;;;12.13;;
18501;SDS011;68437;52.236;5.710;2024-01-11T00:17:01;37.10;;;13.27;;
18501;SDS011;68437;52.236;5.710;2024-01-11T00:19:28;34.97;;;13.03;;
18501;SDS011;68437;52.236;5.710;2024-01-11T00:21:56;36.43;;;12.47;;
18501;SDS011;68437;52.236;5.710;2024-01-11T00:24:23;39.40;;;13.50;;
18501;SDS011;68437;52.236;5.710;2024-01-11T00:26:50;36.47;;;12.40;;
18501;SDS011;68437;52.236;5.710;2024-01-11T00:29:17;34.63;;;12.70;;
18501;SDS011;68437;52.236;5.710;2024-01-11T00:31:45;35.13;;;12.33;;
18501;SDS011;68437;52.236;5.710;2024-01-11T00:34:12;37.37;;;13.13;;
18501;SDS011;68437;52.236;5.710;2024-01-11T00:36:39;36.27;;;12.70;;
18501;SDS011;68437;52.236;5.710;2024-01-11T00:39:07;37.07;;;12.50;;
18501;SDS011;68437;52.236;5.710;2024-01-11T00:41:36;33.87;;;11.83;;
18501;SDS011;68437;52.236;5.710;2024-01-11T00:44:03;37.97;;;12.77;;
18501;SDS011;68437;52.236;5.710;2024-01-11T00:46:30;36.57;;;11.93;;
18501;SDS011;68437;52.236;5.710;2024-01-11T00:48:57;35.00;;;11.53;;
18501;SDS011;68437;52.236;5.710;2024-01-11T00:51:24;36.77;;;12.83;;
18501;SDS011;68437;52.236;5.710;2024-01-11T00:53:50;36.03;;;12.30;;
18501;SDS011;68437;52.236;5.710;2024-01-11T00:56:20;36.23;;;12.57;;
18501;SDS011;68437;52.236;5.710;2024-01-11T00:58:49;35.80;;;12.23;;
18501;SDS011;68437;52.236;5.710;2024-01-11T01:01:16;36.90;;;12.17;;
18501;SDS011;68437;52.236;5.710;2024-01-11T01:03:45;37.10;;;12.67;;
18501;SDS011;68437;52.236;5.710;2024-01-11T01:06:12;35.43;;;12.60;;
18501;SDS011;68437;52.236;5.710;2024-01-11T01:08:39;37.17;;;13.10;;
18501;SDS011;68437;52.236;5.710;2024-01-11T01:11:06;37.43;;;12.43;;
18501;SDS011;68437;52.236;5.710;2024-01-11T01:13:34;39.23;;;12.93;;
18501;SDS011;68437;52.236;5.710;2024-01-11T01:16:01;35.30;;;12.83;;
18501;SDS011;68437;52.236;5.710;2024-01-11T01:18:28;43.63;;;13.37;;
18501;SDS011;68437;52.236;5.710;2024-01-11T01:20:55;35.30;;;12.10;;
18501;SDS011;68437;52.236;5.710;2024-01-11T01:23:21;36.63;;;12.80;;
18501;SDS011;68437;52.236;5.710;2024-01-11T01:25:48;41.17;;;12.83;;
18501;SDS011;68437;52.236;5.710;2024-01-11T01:28:15;40.53;;;13.50;;
18501;SDS011;68437;52.236;5.710;2024-01-11T01:30:43;43.80;;;13.17;;
18501;SDS011;68437;52.236;5.710;2024-01-11T01:33:10;38.27;;;13.93;;
18501;SDS011;68437;52.236;5.710;2024-01-11T01:35:40;40.97;;;13.13;;
18501;SDS011;68437;52.236;5.710;2024-01-11T01:38:06;42.87;;;14.87;;
18501;SDS011;68437;52.236;5.710;2024-01-11T01:40:33;44.83;;;14.23;;
18501;SDS011;68437;52.236;5.710;2024-01-11T01:43:00;42.60;;;14.67;;
18501;SDS011;68437;52.236;5.710;2024-01-11T01:45:27;38.30;;;14.17;;
18501;SDS011;68437;52.236;5.710;2024-01-11T01:47:55;37.90;;;14.70;;
18501;SDS011;68437;52.236;5.710;2024-01-11T01:50:22;43.83;;;14.50;;
18501;SDS011;68437;52.236;5.710;2024-01-11T01:52:49;43.93;;;15.53;;
18501;SDS011;68437;52.236;5.710;2024-01-11T01:55:20;49.07;;;15.30;;
18501;SDS011;68437;52.236;5.710;2024-01-11T01:57:47;44.10;;;15.07;;
18501;SDS011;68437;52.236;5.710;2024-01-11T02:00:15;47.30;;;15.90;;
18501;SDS011;68437;52.236;5.710;2024-01-11T02:02:45;49.00;;;17.20;;
18501;SDS011;68437;52.236;5.710;2024-01-11T02:05:15;50.07;;;16.67;;
18501;SDS011;68437;52.236;5.710;2024-01-11T02:07:43;53.97;;;17.43;;
18501;SDS011;68437;52.236;5.710;2024-01-11T02:10:13;49.67;;;16.33;;
18501;SDS011;68437;52.236;5.710;2024-01-11T02:12:39;46.13;;;16.30;;
18501;SDS011;68437;52.236;5.710;2024-01-11T02:15:12;48.87;;;16.73;;
18501;SDS011;68437;52.236;5.710;2024-01-11T02:17:39;51.10;;;16.87;;
18501;SDS011;68437;52.236;5.710;2024-01-11T02:20:07;50.97;;;17.77;;
18501;SDS011;68437;52.236;5.710;2024-01-11T02:22:42;47.23;;;16.63;;
18501;SDS011;68437;52.236;5.710;2024-01-11T02:25:20;54.03;;;17.83;;
18501;SDS011;68437;52.236;5.710;2024-01-11T02:27:47;55.77;;;18.30;;
18501;SDS011;68437;52.236;5.710;2024-01-11T02:30:15;52.13;;;17.60;;
18501;SDS011;68437;52.236;5.710;2024-01-11T02:32:43;52.10;;;17.40;;
18501;SDS011;68437;52.236;5.710;2024-01-11T02:35:11;55.40;;;18.93;;
18501;SDS011;68437;52.236;5.710;2024-01-11T02:37:39;53.13;;;18.17;;
18501;SDS011;68437;52.236;5.710;2024-01-11T02:40:06;53.60;;;17.73;;
18501;SDS011;68437;52.236;5.710;2024-01-11T02:42:40;52.53;;;18.50;;
18501;SDS011;68437;52.236;5.710;2024-01-11T02:45:07;55.50;;;18.17;;
18501;SDS011;68437;52.236;5.710;2024-01-11T02:47:36;54.40;;;19.17;;
18501;SDS011;68437;52.236;5.710;2024-01-11T02:50:03;57.17;;;18.37;;
18501;SDS011;68437;52.236;5.710;2024-01-11T02:52:30;56.83;;;19.83;;
18501;SDS011;68437;52.236;5.710;2024-01-11T02:54:57;59.83;;;19.60;;
18501;SDS011;68437;52.236;5.710;2024-01-11T02:57:23;58.23;;;19.23;;
18501;SDS011;68437;52.236;5.710;2024-01-11T02:59:52;60.73;;;19.57;;
18501;SDS011;68437;52.236;5.710;2024-01-11T03:02:19;64.17;;;20.93;;
18501;SDS011;68437;52.236;5.710;2024-01-11T03:04:45;69.07;;;22.10;;
18501;SDS011;68437;52.236;5.710;2024-01-11T03:07:12;66.23;;;21.73;;
18501;SDS011;68437;52.236;5.710;2024-01-11T03:09:39;69.07;;;21.13;;
18501;SDS011;68437;52.236;5.710;2024-01-11T03:12:06;67.30;;;22.73;;
18501;SDS011;68437;52.236;5.710;2024-01-11T03:14:33;66.47;;;22.33;;
18501;SDS011;68437;52.236;5.710;2024-01-11T03:17:01;67.20;;;22.17;;
18501;SDS011;68437;52.236;5.710;2024-01-11T03:19:28;70.77;;;21.87;;
18501;SDS011;68437;52.236;5.710;2024-01-11T03:21:55;70.67;;;22.43;;
18501;SDS011;68437;52.236;5.710;2024-01-11T03:24:21;69.63;;;23.37;;
18501;SDS011;68437;52.236;5.710;2024-01-11T03:26:48;75.90;;;22.87;;
18501;SDS011;68437;52.236;5.710;2024-01-11T03:29:15;73.73;;;22.47;;
18501;SDS011;68437;52.236;5.710;2024-01-11T03:31:42;74.20;;;24.67;;
18501;SDS011;68437;52.236;5.710;2024-01-11T03:34:11;77.00;;;25.07;;
18501;SDS011;68437;52.236;5.710;2024-01-11T03:36:38;85.57;;;25.43;;
18501;SDS011;68437;52.236;5.710;2024-01-11T03:39:05;74.67;;;24.53;;
18501;SDS011;68437;52.236;5.710;2024-01-11T03:41:32;77.13;;;24.77;;
18501;SDS011;68437;52.236;5.710;2024-01-11T03:43:59;79.47;;;25.10;;
18501;SDS011;68437;52.236;5.710;2024-01-11T03:46:26;82.33;;;26.07;;
18501;SDS011;68437;52.236;5.710;2024-01-11T03:48:52;86.20;;;28.70;;
18501;SDS011;68437;52.236;5.710;2024-01-11T03:51:22;87.87;;;26.53;;
18501;SDS011;68437;52.236;5.710;2024-01-11T03:53:49;77.37;;;25.57;;
18501;SDS011;68437;52.236;5.710;2024-01-11T03:56:15;82.17;;;26.43;;
18501;SDS011;68437;52.236;5.710;2024-01-11T03:58:45;84.03;;;25.80;;
18501;SDS011;68437;52.236;5.710;2024-01-11T04:01:12;76.37;;;25.70;;
18501;SDS011;68437;52.236;5.710;2024-01-11T04:03:39;82.47;;;25.33;;
18501;SDS011;68437;52.236;5.710;2024-01-11T04:06:08;83.30;;;27.03;;
18501;SDS011;68437;52.236;5.710;2024-01-11T04:08:36;83.47;;;27.93;;
18501;SDS011;68437;52.236;5.710;2024-01-11T04:11:03;82.13;;;26.30;;
18501;SDS011;68437;52.236;5.710;2024-01-11T04:13:31;86.37;;;28.20;;
18501;SDS011;68437;52.236;5.710;2024-01-11T04:15:58;91.60;;;27.30;;
18501;SDS011;68437;52.236;5.710;2024-01-11T04:18:24;90.87;;;28.27;;
18501;SDS011;68437;52.236;5.710;2024-01-11T04:20:51;92.23;;;28.47;;
18501;SDS011;68437;52.236;5.710;2024-01-11T04:23:18;83.97;;;26.70;;
18501;SDS011;68437;52.236;5.710;2024-01-11T04:25:48;91.73;;;28.20;;
18501;SDS011;68437;52.236;5.710;2024-01-11T04:28:15;90.60;;;27.10;;
18501;SDS011;68437;52.236;5.710;2024-01-11T04:30:42;87.67;;;26.43;;
18501;SDS011;68437;52.236;5.710;2024-01-11T04:33:09;89.20;;;27.40;;
18501;SDS011;68437;52.236;5.710;2024-01-11T04:35:36;92.17;;;27.67;;
18501;SDS011;68437;52.236;5.710;2024-01-11T04:38:03;94.07;;;28.70;;
18501;SDS011;68437;52.236;5.710;2024-01-11T04:40:30;86.20;;;27.57;;
18501;SDS011;68437;52.236;5.710;2024-01-11T04:43:00;93.23;;;28.73;;
18501;SDS011;68437;52.236;5.710;2024-01-11T04:45:27;94.07;;;29.23;;
18501;SDS011;68437;52.236;5.710;2024-01-11T04:47:54;95.43;;;28.70;;
18501;SDS011;68437;52.236;5.710;2024-01-11T04:50:21;91.87;;;28.27;;
18501;SDS011;68437;52.236;5.710;2024-01-11T04:52:48;86.63;;;28.47;;
18501;SDS011;68437;52.236;5.710;2024-01-11T04:55:14;89.53;;;27.87;;
18501;SDS011;68437;52.236;5.710;2024-01-11T04:57:41;94.67;;;26.83;;
18501;SDS011;68437;52.236;5.710;2024-01-11T05:00:10;96.40;;;29.63;;
18501;SDS011;68437;52.236;5.710;2024-01-11T05:02:37;103.03;;;31.10;;
18501;SDS011;68437;52.236;5.710;2024-01-11T05:05:07;101.80;;;30.13;;
18501;SDS011;68437;52.236;5.710;2024-01-11T05:07:34;96.23;;;28.93;;
18501;SDS011;68437;52.236;5.710;2024-01-11T05:10:01;102.17;;;30.70;;
18501;SDS011;68437;52.236;5.710;2024-01-11T05:12:29;100.97;;;29.57;;
18501;SDS011;68437;52.236;5.710;2024-01-11T05:14:56;102.33;;;29.77;;
18501;SDS011;68437;52.236;5.710;2024-01-11T05:17:24;89.67;;;27.47;;
18501;SDS011;68437;52.236;5.710;2024-01-11T05:19:51;96.27;;;29.80;;
18501;SDS011;68437;52.236;5.710;2024-01-11T05:22:18;91.57;;;27.77;;
18501;SDS011;68437;52.236;5.710;2024-01-11T05:24:47;96.97;;;29.00;;
18501;SDS011;68437;52.236;5.710;2024-01-11T05:27:14;94.20;;;28.70;;
18501;SDS011;68437;52.236;5.710;2024-01-11T05:29:41;103.43;;;29.50;;
18501;SDS011;68437;52.236;5.710;2024-01-11T05:32:08;91.60;;;28.67;;
18501;SDS011;68437;52.236;5.710;2024-01-11T05:34:36;89.90;;;29.03;;
18501;SDS011;68437;52.236;5.710;2024-01-11T05:37:03;90.97;;;28.13;;
18501;SDS011;68437;52.236;5.710;2024-01-11T05:39:30;93.33;;;29.27;;
18501;SDS011;68437;52.236;5.710;2024-01-11T05:41:59;100.40;;;29.93;;
18501;SDS011;68437;52.236;5.710;2024-01-11T05:44:26;91.87;;;28.70;;
18501;SDS011;68437;52.236;5.710;2024-01-11T05:46:53;100.53;;;28.60;;
18501;SDS011;68437;52.236;5.710;2024-01-11T05:49:20;106.80;;;28.73;;
18501;SDS011;68437;52.236;5.710;2024-01-11T05:51:48;89.80;;;27.83;;
18501;SDS011;68437;52.236;5.710;2024-01-11T05:54:15;92.70;;;29.20;;
18501;SDS011;68437;52.236;5.710;2024-01-11T05:56:45;95.87;;;28.70;;
18501;SDS011;68437;52.236;5.710;2024-01-11T05:59:12;112.37;;;30.77;;
18501;SDS011;68437;52.236;5.710;2024-01-11T06:01:40;106.83;;;30.43;;
18501;SDS011;68437;52.236;5.710;2024-01-11T06:04:08;101.57;;;29.87;;
18501;SDS011;68437;52.236;5.710;2024-01-11T06:06:34;105.73;;;30.77;;
18501;SDS011;68437;52.236;5.710;2024-01-11T06:09:02;101.73;;;30.70;;
18501;SDS011;68437;52.236;5.710;2024-01-11T06:11:30;94.30;;;29.40;;
18501;SDS011;68437;52.236;5.710;2024-01-11T06:13:57;103.10;;;30.97;;
18501;SDS011;68437;52.236;5.710;2024-01-11T06:16:23;115.33;;;33.87;;
18501;SDS011;68437;52.236;5.710;2024-01-11T06:18:50;104.67;;;31.07;;
18501;SDS011;68437;52.236;5.710;2024-01-11T06:21:17;109.93;;;36.03;;
18501;SDS011;68437;52.236;5.710;2024-01-11T06:23:44;110.03;;;32.37;;
18501;SDS011;68437;52.236;5.710;2024-01-11T06:26:17;111.17;;;31.33;;
18501;SDS011;68437;52.236;5.710;2024-01-11T06:28:44;103.53;;;30.87;;
18501;SDS011;68437;52.236;5.710;2024-01-11T06:31:10;116.70;;;32.67;;
18501;SDS011;68437;52.236;5.710;2024-01-11T06:33:37;113.77;;;36.57;;
18501;SDS011;68437;52.236;5.710;2024-01-11T06:36:05;115.00;;;34.93;;
18501;SDS011;68437;52.236;5.710;2024-01-11T06:38:32;109.77;;;33.77;;
18501;SDS011;68437;52.236;5.710;2024-01-11T06:40:59;109.77;;;31.80;;
18501;SDS011;68437;52.236;5.710;2024-01-11T06:43:30;111.13;;;33.07;;
18501;SDS011;68437;52.236;5.710;2024-01-11T06:45:57;121.20;;;37.63;;
18501;SDS011;68437;52.236;5.710;2024-01-11T06:48:29;106.07;;;32.43;;
18501;SDS011;68437;52.236;5.710;2024-01-11T06:50:55;121.40;;;34.13;;
18501;SDS011;68437;52.236;5.710;2024-01-11T06:53:22;114.00;;;32.70;;
18501;SDS011;68437;52.236;5.710;2024-01-11T06:55:49;113.30;;;31.90;;
18501;SDS011;68437;52.236;5.710;2024-01-11T06:58:17;113.67;;;32.60;;
18501;SDS011;68437;52.236;5.710;2024-01-11T07:00:47;118.27;;;32.97;;
18501;SDS011;68437;52.236;5.710;2024-01-11T07:03:14;112.57;;;33.03;;
18501;SDS011;68437;52.236;5.710;2024-01-11T07:05:41;119.13;;;34.30;;
18501;SDS011;68437;52.236;5.710;2024-01-11T07:08:08;114.77;;;33.43;;
18501;SDS011;68437;52.236;5.710;2024-01-11T07:10:35;115.33;;;32.87;;
18501;SDS011;68437;52.236;5.710;2024-01-11T07:13:02;111.70;;;32.20;;
18501;SDS011;68437;52.236;5.710;2024-01-11T07:15:29;115.43;;;32.10;;
18501;SDS011;68437;52.236;5.710;2024-01-11T07:17:58;113.27;;;32.00;;
18501;SDS011;68437;52.236;5.710;2024-01-11T07:20:25;112.07;;;31.70;;
18501;SDS011;68437;52.236;5.710;2024-01-11T07:22:52;116.33;;;32.90;;
18501;SDS011;68437;52.236;5.710;2024-01-11T07:25:19;115.13;;;32.83;;
18501;SDS011;68437;52.236;5.710;2024-01-11T07:27:45;109.03;;;32.17;;
18501;SDS011;68437;52.236;5.710;2024-01-11T07:30:12;118.53;;;33.27;;
18501;SDS011;68437;52.236;5.710;2024-01-11T07:32:43;126.97;;;34.40;;
18501;SDS011;68437;52.236;5.710;2024-01-11T07:35:11;123.70;;;31.47;;
18501;SDS011;68437;52.236;5.710;2024-01-11T07:37:38;109.37;;;32.37;;
18501;SDS011;68437;52.236;5.710;2024-01-11T07:40:06;114.43;;;32.93;;
18501;SDS011;68437;52.236;5.710;2024-01-11T07:42:35;118.03;;;33.77;;
18501;SDS011;68437;52.236;5.710;2024-01-11T07:45:06;114.73;;;33.47;;
18501;SDS011;68437;52.236;5.710;2024-01-11T07:47:35;121.13;;;34.23;;
18501;SDS011;68437;52.236;5.710;2024-01-11T07:50:02;114.93;;;32.67;;
18501;SDS011;68437;52.236;5.710;2024-01-11T07:52:32;123.27;;;34.07;;
18501;SDS011;68437;52.236;5.710;2024-01-11T07:54:59;124.13;;;34.20;;
18501;SDS011;68437;52.236;5.710;2024-01-11T07:57:32;127.47;;;34.77;;
18501;SDS011;68437;52.236;5.710;2024-01-11T07:59:59;126.93;;;34.60;;
18501;SDS011;68437;52.236;5.710;2024-01-11T08:02:26;119.13;;;35.07;;
18501;SDS011;68437;52.236;5.710;2024-01-11T08:04:53;130.73;;;36.27;;
18501;SDS011;68437;52.236;5.710;2024-01-11T08:07:20;130.30;;;35.07;;
18501;SDS011;68437;52.236;5.710;2024-01-11T08:09:48;129.47;;;36.73;;
18501;SDS011;68437;52.236;5.710;2024-01-11T08:12:14;132.70;;;35.93;;
18501;SDS011;68437;52.236;5.710;2024-01-11T08:14:41;123.27;;;34.53;;
18501;SDS011;68437;52.236;5.710;2024-01-11T08:17:09;121.93;;;33.87;;
18501;SDS011;68437;52.236;5.710;2024-01-11T08:19:36;136.27;;;35.50;;
18501;SDS011;68437;52.236;5.710;2024-01-11T08:22:04;127.33;;;36.17;;
18501;SDS011;68437;52.236;5.710;2024-01-11T08:24:31;127.40;;;36.87;;
18501;SDS011;68437;52.236;5.710;2024-01-11T08:27:01;131.27;;;36.93;;
18501;SDS011;68437;52.236;5.710;2024-01-11T08:29:28;133.03;;;35.60;;
18501;SDS011;68437;52.236;5.710;2024-01-11T08:31:55;122.87;;;34.27;;
18501;SDS011;68437;52.236;5.710;2024-01-11T08:34:22;130.50;;;36.20;;
18501;SDS011;68437;52.236;5.710;2024-01-11T08:36:51;122.03;;;36.10;;
18501;SDS011;68437;52.236;5.710;2024-01-11T08:39:18;126.37;;;35.73;;
18501;SDS011;68437;52.236;5.710;2024-01-11T08:41:46;127.03;;;36.70;;
18501;SDS011;68437;52.236;5.710;2024-01-11T08:44:15;124.80;;;34.80;;
18501;SDS011;68437;52.236;5.710;2024-01-11T08:46:43;129.70;;;35.20;;
18501;SDS011;68437;52.236;5.710;2024-01-11T08:49:15;130.03;;;38.10;;
18501;SDS011;68437;52.236;5.710;2024-01-11T08:51:42;125.23;;;34.93;;
18501;SDS011;68437;52.236;5.710;2024-01-11T08:54:10;112.40;;;33.00;;
18501;SDS011;68437;52.236;5.710;2024-01-11T08:56:37;116.13;;;31.80;;
18501;SDS011;68437;52.236;5.710;2024-01-11T08:59:05;115.20;;;30.17;;
18501;SDS011;68437;52.236;5.710;2024-01-11T09:01:34;127.60;;;30.00;;
18501;SDS011;68437;52.236;5.710;2024-01-11T09:04:02;116.70;;;29.43;;
18501;SDS011;68437;52.236;5.710;2024-01-11T09:06:29;117.03;;;29.90;;
18501;SDS011;68437;52.236;5.710;2024-01-11T09:08:57;116.47;;;28.03;;
18501;SDS011;68437;52.236;5.710;2024-01-11T09:11:24;116.07;;;29.47;;
18501;SDS011;68437;52.236;5.710;2024-01-11T09:13:50;111.13;;;29.07;;
18501;SDS011;68437;52.236;5.710;2024-01-11T09:16:17;122.00;;;29.70;;
18501;SDS011;68437;52.236;5.710;2024-01-11T09:18:45;117.57;;;27.83;;
18501;SDS011;68437;52.236;5.710;2024-01-11T09:21:12;113.27;;;28.47;;
18501;SDS011;68437;52.236;5.710;2024-01-11T09:23:39;114.47;;;27.97;;
18501;SDS011;68437;52.236;5.710;2024-01-11T09:26:06;134.20;;;25.97;;
18501;SDS011;68437;52.236;5.710;2024-01-11T09:28:33;103.17;;;24.10;;
18501;SDS011;68437;52.236;5.710;2024-01-11T09:30:59;114.83;;;25.70;;
18501;SDS011;68437;52.236;5.710;2024-01-11T09:33:27;106.70;;;24.00;;
18501;SDS011;68437;52.236;5.710;2024-01-11T09:35:55;108.00;;;25.27;;
18501;SDS011;68437;52.236;5.710;2024-01-11T09:38:22;112.80;;;25.40;;
18501;SDS011;68437;52.236;5.710;2024-01-11T09:40:49;117.93;;;24.90;;
18501;SDS011;68437;52.236;5.710;2024-01-11T09:43:26;110.50;;;24.87;;
18501;SDS011;68437;52.236;5.710;2024-01-11T09:45:53;111.40;;;24.57;;
18501;SDS011;68437;52.236;5.710;2024-01-11T09:48:21;99.33;;;23.20;;
18501;SDS011;68437;52.236;5.710;2024-01-11T09:50:50;110.30;;;23.40;;
18501;SDS011;68437;52.236;5.710;2024-01-11T09:53:19;111.33;;;24.00;;
18501;SDS011;68437;52.236;5.710;2024-01-11T09:55:48;103.77;;;22.87;;
18501;SDS011;68437;52.236;5.710;2024-01-11T09:58:16;125.53;;;24.80;;
18501;SDS011;68437;52.236;5.710;2024-01-11T10:00:43;113.23;;;24.97;;
18501;SDS011;68437;52.236;5.710;2024-01-11T10:03:12;102.90;;;23.37;;
18501;SDS011;68437;52.236;5.710;2024-01-11T10:05:39;115.73;;;23.87;;
18501;SDS011;68437;52.236;5.710;2024-01-11T10:08:10;111.70;;;24.33;;
18501;SDS011;68437;52.236;5.710;2024-01-11T10:10:39;101.97;;;22.53;;
18501;SDS011;68437;52.236;5.710;2024-01-11T10:13:06;109.10;;;22.27;;
18501;SDS011;68437;52.236;5.710;2024-01-11T10:15:32;109.20;;;22.00;;
18501;SDS011;68437;52.236;5.710;2024-01-11T10:17:59;113.37;;;23.87;;
18501;SDS011;68437;52.236;5.710;2024-01-11T10:20:26;117.97;;;25.60;;
18501;SDS011;68437;52.236;5.710;2024-01-11T10:22:55;103.43;;;24.77;;
18501;SDS011;68437;52.236;5.710;2024-01-11T10:25:23;112.80;;;24.37;;
18501;SDS011;68437;52.236;5.710;2024-01-11T10:27:52;106.63;;;25.30;;
18501;SDS011;68437;52.236;5.710;2024-01-11T10:30:19;119.67;;;23.10;;
18501;SDS011;68437;52.236;5.710;2024-01-11T10:32:47;102.90;;;23.07;;
18501;SDS011;68437;52.236;5.710;2024-01-11T10:35:15;103.20;;;22.07;;
18501;SDS011;68437;52.236;5.710;2024-01-11T10:37:46;102.83;;;22.30;;
18501;SDS011;68437;52.236;5.710;2024-01-11T10:40:18;109.47;;;22.53;;
18501;SDS011;68437;52.236;5.710;2024-01-11T10:42:49;98.77;;;21.90;;
18501;SDS011;68437;52.236;5.710;2024-01-11T10:45:19;106.73;;;23.87;;
18501;SDS011;68437;52.236;5.710;2024-01-11T10:47:53;98.20;;;22.60;;
18501;SDS011;68437;52.236;5.710;2024-01-11T10:50:22;115.17;;;24.60;;
18501;SDS011;68437;52.236;5.710;2024-01-11T10:52:53;111.73;;;25.37;;
18501;SDS011;68437;52.236;5.710;2024-01-11T10:55:26;117.13;;;26.90;;
18501;SDS011;68437;52.236;5.710;2024-01-11T10:57:55;102.47;;;26.73;;
18501;SDS011;68437;52.236;5.710;2024-01-11T11:00:24;128.00;;;27.80;;
18501;SDS011;68437;52.236;5.710;2024-01-11T11:02:51;100.07;;;24.57;;
18501;SDS011;68437;52.236;5.710;2024-01-11T11:05:21;103.13;;;23.83;;
18501;SDS011;68437;52.236;5.710;2024-01-11T11:07:49;104.70;;;22.87;;
18501;SDS011;68437;52.236;5.710;2024-01-11T11:10:17;96.37;;;21.63;;
18501;SDS011;68437;52.236;5.710;2024-01-11T11:12:45;100.53;;;23.43;;
18501;SDS011;68437;52.236;5.710;2024-01-11T11:15:15;111.57;;;25.37;;
18501;SDS011;68437;52.236;5.710;2024-01-11T11:17:43;112.40;;;26.67;;
18501;SDS011;68437;52.236;5.710;2024-01-11T11:20:11;122.53;;;29.83;;
18501;SDS011;68437;52.236;5.710;2024-01-11T11:22:39;107.93;;;27.23;;
18501;SDS011;68437;52.236;5.710;2024-01-11T11:25:08;101.53;;;27.10;;
18501;SDS011;68437;52.236;5.710;2024-01-11T11:27:35;97.53;;;25.97;;
18501;SDS011;68437;52.236;5.710;2024-01-11T11:30:02;114.70;;;28.47;;
18501;SDS011;68437;52.236;5.710;2024-01-11T11:32:38;105.03;;;26.07;;
18501;SDS011;68437;52.236;5.710;2024-01-11T11:35:09;114.60;;;27.50;;
18501;SDS011;68437;52.236;5.710;2024-01-11T11:37:36;110.13;;;28.47;;
18501;SDS011;68437;52.236;5.710;2024-01-11T11:40:04;106.97;;;29.60;;
18501;SDS011;68437;52.236;5.710;2024-01-11T11:42:33;109.90;;;29.73;;
18501;SDS011;68437;52.236;5.710;2024-01-11T11:45:00;106.73;;;27.50;;
18501;SDS011;68437;52.236;5.710;2024-01-11T11:47:32;96.10;;;25.87;;
18501;SDS011;68437;52.236;5.710;2024-01-11T11:50:07;91.67;;;24.93;;
18501;SDS011;68437;52.236;5.710;2024-01-11T11:52:36;90.40;;;24.97;;
18501;SDS011;68437;52.236;5.710;2024-01-11T11:55:04;89.17;;;24.53;;
18501;SDS011;68437;52.236;5.710;2024-01-11T11:57:33;91.73;;;26.33;;
18501;SDS011;68437;52.236;5.710;2024-01-11T12:00:00;87.70;;;27.43;;
18501;SDS011;68437;52.236;5.710;2024-01-11T12:02:31;92.73;;;28.10;;
18501;SDS011;68437;52.236;5.710;2024-01-11T12:05:01;85.37;;;25.80;;
18501;SDS011;68437;52.236;5.710;2024-01-11T12:07:30;92.63;;;25.47;;
18501;SDS011;68437;52.236;5.710;2024-01-11T12:09:57;75.97;;;24.57;;
18501;SDS011;68437;52.236;5.710;2024-01-11T12:12:25;79.87;;;25.77;;
18501;SDS011;68437;52.236;5.710;2024-01-11T12:14:52;73.07;;;22.27;;
18501;SDS011;68437;52.236;5.710;2024-01-11T12:17:19;74.00;;;22.20;;
18501;SDS011;68437;52.236;5.710;2024-01-11T12:19:46;69.67;;;21.30;;
18501;SDS011;68437;52.236;5.710;2024-01-11T12:22:13;70.67;;;21.80;;
18501;SDS011;68437;52.236;5.710;2024-01-11T12:24:41;69.63;;;21.43;;
18501;SDS011;68437;52.236;5.710;2024-01-11T12:27:08;61.53;;;21.03;;
18501;SDS011;68437;52.236;5.710;2024-01-11T12:29:38;69.50;;;21.17;;
18501;SDS011;68437;52.236;5.710;2024-01-11T12:32:05;72.23;;;23.00;;
18501;SDS011;68437;52.236;5.710;2024-01-11T12:34:36;72.93;;;23.47;;
18501;SDS011;68437;52.236;5.710;2024-01-11T12:37:04;69.83;;;22.00;;
18501;SDS011;68437;52.236;5.710;2024-01-11T12:39:34;74.27;;;23.73;;
18501;SDS011;68437;52.236;5.710;2024-01-11T12:42:05;76.43;;;23.50;;
18501;SDS011;68437;52.236;5.710;2024-01-11T12:44:37;79.03;;;27.63;;
18501;SDS011;68437;52.236;5.710;2024-01-11T12:47:07;84.30;;;29.73;;
18501;SDS011;68437;52.236;5.710;2024-01-11T12:49:34;78.43;;;30.33;;
18501;SDS011;68437;52.236;5.710;2024-01-11T12:52:00;82.83;;;31.43;;
18501;SDS011;68437;52.236;5.710;2024-01-11T12:54:31;69.93;;;22.80;;
18501;SDS011;68437;52.236;5.710;2024-01-11T12:56:59;60.57;;;21.17;;
18501;SDS011;68437;52.236;5.710;2024-01-11T12:59:28;66.67;;;22.17;;
18501;SDS011;68437;52.236;5.710;2024-01-11T13:01:55;65.30;;;22.00;;
18501;SDS011;68437;52.236;5.710;2024-01-11T13:04:24;60.77;;;20.43;;
18501;SDS011;68437;52.236;5.710;2024-01-11T13:06:51;72.20;;;23.53;;
18501;SDS011;68437;52.236;5.710;2024-01-11T13:09:18;65.60;;;21.27;;
18501;SDS011;68437;52.236;5.710;2024-01-11T13:11:45;73.93;;;25.10;;
18501;SDS011;68437;52.236;5.710;2024-01-11T13:14:12;68.23;;;25.90;;
18501;SDS011;68437;52.236;5.710;2024-01-11T13:16:45;71.40;;;25.17;;
18501;SDS011;68437;52.236;5.710;2024-01-11T13:19:13;60.87;;;22.77;;
18501;SDS011;68437;52.236;5.710;2024-01-11T13:21:42;57.80;;;20.00;;
18501;SDS011;68437;52.236;5.710;2024-01-11T13:24:09;66.67;;;20.47;;
18501;SDS011;68437;52.236;5.710;2024-01-11T13:26:38;58.77;;;20.57;;
18501;SDS011;68437;52.236;5.710;2024-01-11T13:29:05;63.23;;;20.33;;
18501;SDS011;68437;52.236;5.710;2024-01-11T13:31:32;56.30;;;20.10;;
18501;SDS011;68437;52.236;5.710;2024-01-11T13:34:01;64.77;;;20.10;;
18501;SDS011;68437;52.236;5.710;2024-01-11T13:36:28;56.73;;;19.30;;
18501;SDS011;68437;52.236;5.710;2024-01-11T13:38:55;57.20;;;18.90;;
18501;SDS011;68437;52.236;5.710;2024-01-11T13:41:22;60.53;;;20.07;;
18501;SDS011;68437;52.236;5.710;2024-01-11T13:43:49;65.90;;;21.10;;
18501;SDS011;68437;52.236;5.710;2024-01-11T13:46:15;69.07;;;21.90;;
18501;SDS011;68437;52.236;5.710;2024-01-11T13:48:44;61.40;;;18.97;;
18501;SDS011;68437;52.236;5.710;2024-01-11T13:51:13;59.60;;;18.90;;
18501;SDS011;68437;52.236;5.710;2024-01-11T13:53:43;63.97;;;19.47;;
18501;SDS011;68437;52.236;5.710;2024-01-11T13:56:11;60.93;;;18.57;;
18501;SDS011;68437;52.236;5.710;2024-01-11T13:58:41;60.37;;;19.33;;
18501;SDS011;68437;52.236;5.710;2024-01-11T14:01:09;63.27;;;19.67;;
18501;SDS011;68437;52.236;5.710;2024-01-11T14:03:39;64.03;;;19.60;;
18501;SDS011;68437;52.236;5.710;2024-01-11T14:06:06;66.63;;;20.50;;
18501;SDS011;68437;52.236;5.710;2024-01-11T14:08:36;61.50;;;19.17;;
18501;SDS011;68437;52.236;5.710;2024-01-11T14:11:03;59.27;;;19.27;;
18501;SDS011;68437;52.236;5.710;2024-01-11T14:13:30;64.23;;;21.10;;
18501;SDS011;68437;52.236;5.710;2024-01-11T14:15:57;60.43;;;20.57;;
18501;SDS011;68437;52.236;5.710;2024-01-11T14:18:24;63.03;;;20.83;;
18501;SDS011;68437;52.236;5.710;2024-01-11T14:20:53;64.77;;;20.57;;